Flight Track Log - Related Links

Times and Time Zones

All times are in EST time to prevent confusion due to time zone crossing. See the N339KC flight status page for this flight to view local times or setup timezone preferences in your user account.

Time Position Orientation Groundspeed Altitude Reporting Facility
EST Latitude Longitude Course Direction KTS MPH feet Rate Location/Type
Thu 12:33:00 PM 41.8866 -92.0167 279° West  Level Estimated
Thu 12:34:00 PM 41.8832 -92.1480 281° West  Level Estimated
Thu 12:35:00 PM 41.9174 -92.2712 290° West  Level FlightAware Approximate
Thu 12:35:42 PM 41.9428 -92.2489 290° West 311 358 18,400  Level FlightAware ADS-B (LPVM)
Thu 12:36:15 PM 41.9439 -92.3133 271° West 311 358 19,500 2,323 Climbing FlightAware ADS-B (LPVM)
Thu 12:37:15 PM 41.9454 -92.4221 271° West 308 354 22,000 2,513 Climbing FlightAware ADS-B (LPVM)
Thu 12:38:12 PM 41.9468 -92.5342 271° West 301 346 24,400 2,640 Climbing FlightAware ADS-B (LPVM)
Thu 12:39:45 PM 41.9487 -92.7072 271° West 294 338 28,600 2,373 Climbing FlightAware ADS-B (LPVM)
Thu 12:41:52 PM 41.9506 -92.9091 271° West 278 320 33,100 1,543 Climbing FlightAware ADS-B (LPVM)
Thu 12:43:15 PM 41.9516 -93.0707 271° West 277 319 34,000 640 Climbing FlightAware ADS-B (LPVM)
Thu 12:44:22 PM 41.9525 -93.2199 270° West 337 388 34,700 800 Climbing FlightAware ADS-B (LPVM)
Thu 12:45:45 PM 41.9532 -93.3547 270° West 340 391 36,000 964 Climbing FlightAware ADS-B (LPVM)
Thu 12:46:39 PM 41.9536 -93.4932 270° West 342 394 36,900 986 Climbing FlightAware ADS-B (LPVM)
Thu 12:48:05 PM 41.9541 -93.6811 270° West 341 392 38,300 992 Climbing FlightAware ADS-B (LPVM)
Thu 12:48:40 PM 41.9542 -93.7609 270° West 336 387 38,900 887 Climbing FlightAware ADS-B (LPVM)
Thu 12:50:00 PM 41.9541 -93.9269 270° West 338 389 40,000 172 Climbing FlightAware ADS-B (LPVM)
Thu 12:55:03 PM 41.9515 -94.6209 270° West 386 444 40,000  Level FlightAware ADS-B (LPVM)
Thu 12:55:54 PM 41.9506 -94.7420 269° West 387 445 40,000  Level FlightAware ADS-B (LPVM)
Thu 12:56:34 PM 41.9498 -94.8399 269° West 387 445 40,000  Level FlightAware ADS-B (LPVM)
Thu 12:57:11 PM 41.9491 -94.9286 269° West 388 447 40,000  Level FlightAware ADS-B (LPVM)
Thu 12:57:50 PM 41.9481 -95.0222 269° West 388 447 40,000  Level FlightAware ADS-B (LPVM)
Thu 12:58:32 PM 41.9470 -95.1226 269° West 384 442 40,000  Level FlightAware ADS-B (LPVM)
Thu 12:59:12 PM 41.9460 -95.2163 269° West 381 438 40,000  Level FlightAware ADS-B
Thu 12:59:13 PM 41.9459 -95.2196 269° West 381 438 40,000  Level FlightAware ADS-B (LPVM)
Thu 12:59:55 PM 41.9447 -95.3164 269° West 379 436 40,000  Level FlightAware ADS-B (LPVM)
Thu 01:02:03 PM 41.9404 -95.6184 269° West 379 436 40,000  Level FlightAware ADS-B
Thu 01:02:37 PM 41.9393 -95.6904 269° West 380 437 40,000  Level FlightAware ADS-B (LPVM)
Thu 01:03:12 PM 41.9394 -95.6842 89° East 380 437 40,000  Level FlightAware ADS-B
Thu 01:04:16 PM 41.9373 -95.8095 269° West 381 438 40,000  Level FlightAware ADS-B
Thu 01:04:48 PM 41.9338 -96.0085 269° West 381 438 40,000  Level FlightAware ADS-B
Thu 01:05:21 PM 41.9336 -96.0179 268° West 381 438 40,000  Level FlightAware ADS-B
Thu 01:06:34 PM 41.9297 -96.2397 268° West 380 437 40,000  Level Minneapolis Center
Thu 01:07:36 PM 41.9267 -96.3806 268° West 380 437 40,000  Level Minneapolis Center
Thu 01:08:38 PM 41.9222 -96.5225 268° West 381 438 40,000  Level Minneapolis Center
Thu 01:09:40 PM 41.9192 -96.6928 269° West 382 440 40,000  Level Minneapolis Center
Thu 01:10:43 PM 41.9144 -96.8344 267° West 382 440 40,000  Level Minneapolis Center
Thu 01:11:45 PM 41.9108 -96.9767 268° West 383 441 40,000  Level Minneapolis Center
Thu 01:12:47 PM 41.9078 -97.1175 268° West 381 438 40,000  Level Minneapolis Center
Thu 01:13:49 PM 41.9039 -97.2614 268° West 384 442 40,000  Level Minneapolis Center
Thu 01:14:51 PM 41.8994 -97.4047 268° West 385 443 40,000  Level Minneapolis Center
Thu 01:15:53 PM 41.8939 -97.5781 268° West 387 445 40,000  Level Minneapolis Center
Thu 01:16:55 PM 41.8889 -97.7222 267° West 387 445 40,000  Level Minneapolis Center
Thu 01:17:57 PM 41.8839 -97.8675 267° West 389 448 40,000  Level Minneapolis Center
Thu 01:19:30 PM 41.8756 -98.0806 267° West 388 447 40,000  Level Denver Center
Thu 01:20:01 PM 41.8725 -98.1672 267° West 389 448 40,000  Level Minneapolis Center
Thu 01:21:03 PM 41.8678 -98.3119 268° West 390 449 40,000  Level Minneapolis Center
Thu 01:22:05 PM 41.8617 -98.4572 267° West 390 449 40,000  Level Minneapolis Center
Thu 01:23:07 PM 41.8550 -98.6014 266° West 391 450 40,000  Level Minneapolis Center
Thu 01:24:10 PM 41.8478 -98.7733 267° West 388 447 40,000  Level Minneapolis Center
Thu 01:25:12 PM 41.8425 -98.9172 267° West 388 447 40,000  Level Minneapolis Center
Thu 01:25:43 PM 41.8403 -98.9758 267° West 388 447 40,000  Level Denver Center
Thu 01:26:45 PM 41.8319 -99.1500 266° West 391 450 40,000  Level Denver Center
Thu 01:27:47 PM 41.8244 -99.2942 266° West 390 449 40,000  Level Denver Center
Thu 01:28:49 PM 41.8175 -99.4406 266° West 393 452 40,000  Level Denver Center
Thu 01:29:20 PM 41.8133 -99.5283 266° West 394 453 40,000  Level Minneapolis Center
Thu 01:30:22 PM 41.8064 -99.6761 266° West 397 457 40,000  Level Minneapolis Center
Thu 01:30:53 PM 41.8014 -99.7522 265° West 398 458 40,000  Level Denver Center
Thu 01:31:55 PM 41.7944 -99.8942 266° West 399 459 40,000  Level Denver Center
Thu 01:32:57 PM 41.7856 -100.0617 266° West 403 464 40,000  Level Denver Center
Thu 01:33:59 PM 41.7778 -100.2058 266° West 406 467 40,000  Level Denver Center
Thu 01:39:30 PM 41.7272 -101.0629 266° West 412 474 40,000  Level FlightAware ADS-B (EGNT / NCL)
Thu 01:42:24 PM 41.6987 -101.5031 265° West 410 472 40,000  Level FlightAware ADS-B (EGNT / NCL)
Thu 01:46:26 PM 41.6573 -102.0985 265° West 406 467 40,000  Level FlightAware ADS-B (EGNT / NCL)
Thu 01:47:20 PM 41.6466 -102.2446 264° West 406 467 40,000  Level FlightAware ADS-B (EGNT / NCL)
Thu 01:48:25 PM 41.6347 -102.4052 264° West 406 467 40,000  Level FlightAware ADS-B (EGNT / NCL)
Thu 01:49:25 PM 41.6234 -102.5555 264° West 403 464 40,000  Level FlightAware ADS-B (EGNT / NCL)
Thu 01:50:15 PM 41.6143 -102.6745 264° West 405 466 40,000  Level FlightAware ADS-B (EGNT / NCL)
Thu 01:50:59 PM 41.6086 -102.7475 264° West 406 467 40,000  Level FlightAware ADS-B (EGNT / NCL)
Thu 01:51:37 PM 41.6012 -102.8421 264° West 407 468 40,000  Level FlightAware ADS-B (EGNT / NCL)
Thu 01:52:38 PM 41.5863 -103.0293 264° West 408 470 40,000  Level FlightAware ADS-B (EGNT / NCL)
Thu 01:53:19 PM 41.5779 -103.1348 264° West 410 472 40,000  Level FlightAware ADS-B (EGNT / NCL)
Thu 01:53:52 PM 41.5711 -103.2177 264° West 411 473 40,000  Level FlightAware ADS-B (EGNT / NCL)
Thu 01:55:01 PM 41.5569 -103.3878 264° West 412 474 40,000  Level FlightAware ADS-B (EGNT / NCL)
Thu 01:55:37 PM 41.5488 -103.4847 264° West 414 476 40,000  Level FlightAware ADS-B (EGNT / NCL)
Thu 01:56:41 PM 41.5356 -103.6395 264° West 417 480 40,000  Level FlightAware ADS-B (EGNT / NCL)
Thu 01:57:20 PM 41.5265 -103.7459 263° West 421 484 40,000  Level FlightAware ADS-B (EGNT / NCL)
Thu 01:58:05 PM 41.5187 -103.8345 263° West 424 488 40,000  Level FlightAware ADS-B (EGNT / NCL)
Thu 01:58:48 PM 41.5090 -103.9460 263° West 426 490 40,000  Level FlightAware ADS-B (EGNT / NCL)
Thu 01:59:30 PM 41.4987 -104.0612 263° West 428 493 40,000  Level FlightAware ADS-B (EGNT / NCL)
Thu 02:00:12 PM 41.4869 -104.1918 263° West 428 493 40,000  Level FlightAware ADS-B (EGNT / NCL)
Thu 02:00:51 PM 41.4774 -104.2956 263° West 427 491 40,000  Level FlightAware ADS-B (EGNT / NCL)
Thu 02:01:32 PM 41.4677 -104.4014 263° West 426 490 40,000  Level FlightAware ADS-B (EGNT / NCL)
Thu 02:02:08 PM 41.4623 -104.4594 263° West 423 487 40,000  Level FlightAware ADS-B (EGNT / NCL)
Thu 02:02:47 PM 41.4518 -104.5719 263° West 422 486 40,000  Level FlightAware ADS-B (CYQT)
Thu 02:04:10 PM 41.4382 -104.7160 263° West 424 488 40,000  Level FlightAware ADS-B (CYQT)
Thu 02:05:11 PM 41.4226 -104.8783 263° West 421 484 40,000  Level FlightAware ADS-B (CYQT)
Thu 02:05:43 PM 41.4226 -104.8783 263° West 423 487 40,000 -1,361 Level FlightAware ADS-B (CYQT)
Thu 02:06:48 PM 41.3902 -105.2085 263° West 399 459 37,800 -2,000 Descending FlightAware ADS-B (EGNT / NCL)
Thu 02:07:31 PM 41.3815 -105.2953 262° West 403 464 36,400 -1,333 Descending FlightAware ADS-B (EGNT / NCL)
Thu 02:08:09 PM 41.3704 -105.4044 262° West 389 448 36,000 -300 Descending FlightAware ADS-B (EGNT / NCL)
Thu 02:08:51 PM 41.3604 -105.5031 262° West 395 455 36,000 -444 Level FlightAware ADS-B (EGNT / NCL)
Thu 02:09:30 PM 41.3498 -105.6059 262° West 421 484 35,400 -1,520 Descending FlightAware ADS-B (EGNT / NCL)
Thu 02:10:06 PM 41.3358 -105.6995 259° West 436 502 34,100 -1,818 Descending FlightAware ADS-B (EGNT / NCL)
Thu 02:10:36 PM 41.3141 -105.7643 246° West 451 519 33,400 -971 Descending FlightAware ADS-B (EGNT / NCL)
Thu 02:11:14 PM 41.2660 -105.8624 237° Southwest 470 541 33,000 -940 Descending FlightAware ADS-B (EGNT / NCL)
Thu 02:11:59 PM 41.2143 -105.9649 236° Southwest 474 545 32,100 -1,680 Descending FlightAware ADS-B (EGNT / NCL)
Thu 02:13:19 PM 41.1137 -106.1629 236° Southwest 478 550 29,500 -2,000 Descending FlightAware ADS-B (EGNT / NCL)
Thu 02:14:02 PM 41.0602 -106.2675 236° Southwest 477 549 28,000 -2,122 Descending FlightAware ADS-B (EGNT / NCL)
Thu 02:14:41 PM 41.0120 -106.3613 236° Southwest 444 511 26,600 -2,000 Descending FlightAware ADS-B (EGNT / NCL)
Thu 02:15:17 PM 40.9765 -106.4303 236° Southwest 405 466 25,500 -1,673 Descending FlightAware ADS-B (EGNT / NCL)
Thu 02:16:25 PM 40.9147 -106.5475 236° Southwest 396 456 23,700 -2,031 Descending Denver Center
Thu 02:17:27 PM 40.8511 -106.6711 236° Southwest 373 429 21,100 -2,419 Descending Denver Center
Thu 02:18:29 PM 40.7994 -106.7711 236° Southwest 354 407 18,700 -1,935 Descending Denver Center
Thu 02:19:31 PM 40.7400 -106.8858 236° Southwest 336 387 17,100 -823 Descending Denver Center
Thu 02:20:33 PM 40.6906 -106.9808 236° Southwest 319 367 17,000 -48 Descending Denver Center
Thu 02:21:35 PM 40.6444 -107.0700 236° Southwest 300 345 17,000 -97 Level Denver Center
Thu 02:22:37 PM 40.6458 -107.1503 271° West 247 284 16,800 -339 Descending Denver Center
Thu 02:23:39 PM 40.6700 -107.2528 287° West 263 303 16,300 -774 Descending Denver Center
Thu 02:24:41 PM 40.6917 -107.3358 289° West 257 296 15,200 -1,355 Descending Denver Center
Thu 02:25:43 PM 40.6689 -107.4242 251° West 247 284 13,500 -1,488 Descending Denver Center
Thu 02:26:46 PM 40.6339 -107.4956 237° Southwest 246 283 12,100 -1,104 Descending Denver Center
Thu 02:27:48 PM 40.5758 -107.5367 208° Southwest 248 285 11,200 -1,016 Descending Denver Center
Thu 02:28:50 PM 40.5372 -107.4811 132° Southeast 233 268 10,000 -1,161 Descending Denver Center

Login

Don't have an account? Register now (free) for customized features, flight alerts, and more!